sensor_id;sensor_type;location;lat;lon;timestamp;P1;durP1;ratioP1;P2;durP2;ratioP2
11691;SDS011;33659;42.672;23.354;2023-05-10T00:00:19;4.60;;;3.87;;
11691;SDS011;33659;42.672;23.354;2023-05-10T00:02:47;4.13;;;3.67;;
11691;SDS011;33659;42.672;23.354;2023-05-10T00:05:14;5.33;;;3.90;;
11691;SDS011;33659;42.672;23.354;2023-05-10T00:07:41;4.23;;;3.83;;
11691;SDS011;33659;42.672;23.354;2023-05-10T00:10:09;4.20;;;3.80;;
11691;SDS011;33659;42.672;23.354;2023-05-10T00:12:36;4.40;;;4.00;;
11691;SDS011;33659;42.672;23.354;2023-05-10T00:15:05;4.60;;;4.20;;
11691;SDS011;33659;42.672;23.354;2023-05-10T00:17:33;4.37;;;4.03;;
11691;SDS011;33659;42.672;23.354;2023-05-10T00:20:00;4.33;;;3.93;;
11691;SDS011;33659;42.672;23.354;2023-05-10T00:22:27;4.93;;;4.43;;
11691;SDS011;33659;42.672;23.354;2023-05-10T00:24:53;4.77;;;3.90;;
11691;SDS011;33659;42.672;23.354;2023-05-10T00:27:20;5.80;;;4.17;;
11691;SDS011;33659;42.672;23.354;2023-05-10T00:29:46;5.20;;;4.13;;
11691;SDS011;33659;42.672;23.354;2023-05-10T00:32:14;5.17;;;4.67;;
11691;SDS011;33659;42.672;23.354;2023-05-10T00:34:41;5.47;;;4.97;;
11691;SDS011;33659;42.672;23.354;2023-05-10T00:37:08;4.80;;;4.37;;
11691;SDS011;33659;42.672;23.354;2023-05-10T00:39:34;5.27;;;4.77;;
11691;SDS011;33659;42.672;23.354;2023-05-10T00:42:01;5.80;;;4.50;;
11691;SDS011;33659;42.672;23.354;2023-05-10T00:44:29;5.10;;;4.60;;
11691;SDS011;33659;42.672;23.354;2023-05-10T00:46:56;5.20;;;4.37;;
11691;SDS011;33659;42.672;23.354;2023-05-10T00:49:25;4.87;;;4.37;;
11691;SDS011;33659;42.672;23.354;2023-05-10T00:51:52;6.03;;;5.40;;
11691;SDS011;33659;42.672;23.354;2023-05-10T00:54:19;5.40;;;4.90;;
11691;SDS011;33659;42.672;23.354;2023-05-10T00:56:46;5.10;;;4.70;;
11691;SDS011;33659;42.672;23.354;2023-05-10T00:59:14;4.90;;;4.40;;
11691;SDS011;33659;42.672;23.354;2023-05-10T01:01:41;5.53;;;4.93;;
11691;SDS011;33659;42.672;23.354;2023-05-10T01:04:08;5.43;;;4.90;;
11691;SDS011;33659;42.672;23.354;2023-05-10T01:06:38;5.50;;;4.93;;
11691;SDS011;33659;42.672;23.354;2023-05-10T01:09:04;6.03;;;5.13;;
11691;SDS011;33659;42.672;23.354;2023-05-10T01:11:31;5.40;;;4.90;;
11691;SDS011;33659;42.672;23.354;2023-05-10T01:13:58;5.83;;;5.30;;
11691;SDS011;33659;42.672;23.354;2023-05-10T01:16:25;5.70;;;5.20;;
11691;SDS011;33659;42.672;23.354;2023-05-10T01:18:52;5.10;;;4.60;;
11691;SDS011;33659;42.672;23.354;2023-05-10T01:21:21;5.07;;;4.57;;
11691;SDS011;33659;42.672;23.354;2023-05-10T01:24:07;5.37;;;4.87;;
11691;SDS011;33659;42.672;23.354;2023-05-10T01:26:52;5.83;;;5.23;;
11691;SDS011;33659;42.672;23.354;2023-05-10T01:32:44;5.50;;;5.00;;
11691;SDS011;33659;42.672;23.354;2023-05-10T01:35:22;4.47;;;4.07;;
11691;SDS011;33659;42.672;23.354;2023-05-10T01:37:58;4.17;;;3.77;;
11691;SDS011;33659;42.672;23.354;2023-05-10T01:40:35;5.30;;;4.47;;
11691;SDS011;33659;42.672;23.354;2023-05-10T01:43:07;4.40;;;3.70;;
11691;SDS011;33659;42.672;23.354;2023-05-10T01:45:39;4.23;;;3.83;;
11691;SDS011;33659;42.672;23.354;2023-05-10T01:48:13;4.70;;;4.30;;
11691;SDS011;33659;42.672;23.354;2023-05-10T01:50:41;4.13;;;3.73;;
11691;SDS011;33659;42.672;23.354;2023-05-10T01:53:10;4.30;;;3.90;;
11691;SDS011;33659;42.672;23.354;2023-05-10T01:55:39;4.13;;;3.73;;
11691;SDS011;33659;42.672;23.354;2023-05-10T01:58:09;3.63;;;3.33;;
11691;SDS011;33659;42.672;23.354;2023-05-10T02:00:39;4.23;;;3.93;;
11691;SDS011;33659;42.672;23.354;2023-05-10T02:03:08;4.67;;;4.17;;
11691;SDS011;33659;42.672;23.354;2023-05-10T02:05:38;3.83;;;3.53;;
11691;SDS011;33659;42.672;23.354;2023-05-10T02:08:07;3.63;;;3.27;;
11691;SDS011;33659;42.672;23.354;2023-05-10T02:10:36;3.20;;;2.90;;
11691;SDS011;33659;42.672;23.354;2023-05-10T02:13:03;2.80;;;2.60;;
11691;SDS011;33659;42.672;23.354;2023-05-10T02:15:33;3.03;;;2.80;;
11691;SDS011;33659;42.672;23.354;2023-05-10T02:18:01;3.77;;;3.40;;
11691;SDS011;33659;42.672;23.354;2023-05-10T02:20:30;4.00;;;3.70;;
11691;SDS011;33659;42.672;23.354;2023-05-10T02:22:59;5.47;;;3.50;;
11691;SDS011;33659;42.672;23.354;2023-05-10T02:25:29;3.63;;;3.20;;
11691;SDS011;33659;42.672;23.354;2023-05-10T02:27:57;4.33;;;3.63;;
11691;SDS011;33659;42.672;23.354;2023-05-10T02:30:27;5.87;;;3.73;;
11691;SDS011;33659;42.672;23.354;2023-05-10T02:32:57;3.90;;;3.40;;
11691;SDS011;33659;42.672;23.354;2023-05-10T02:35:24;2.90;;;2.70;;
11691;SDS011;33659;42.672;23.354;2023-05-10T02:37:52;3.13;;;2.70;;
11691;SDS011;33659;42.672;23.354;2023-05-10T02:40:22;5.17;;;3.53;;
11691;SDS011;33659;42.672;23.354;2023-05-10T02:42:50;4.30;;;2.87;;
11691;SDS011;33659;42.672;23.354;2023-05-10T02:45:22;2.73;;;2.53;;
11691;SDS011;33659;42.672;23.354;2023-05-10T02:47:53;4.13;;;3.73;;
11691;SDS011;33659;42.672;23.354;2023-05-10T02:50:20;3.13;;;2.83;;
11691;SDS011;33659;42.672;23.354;2023-05-10T02:52:49;4.13;;;3.33;;
11691;SDS011;33659;42.672;23.354;2023-05-10T02:55:19;4.53;;;2.97;;
11691;SDS011;33659;42.672;23.354;2023-05-10T02:57:51;4.57;;;3.13;;
11691;SDS011;33659;42.672;23.354;2023-05-10T03:00:22;3.50;;;3.20;;
11691;SDS011;33659;42.672;23.354;2023-05-10T03:02:50;4.57;;;3.30;;
11691;SDS011;33659;42.672;23.354;2023-05-10T03:05:17;3.33;;;3.03;;
11691;SDS011;33659;42.672;23.354;2023-05-10T03:07:44;3.30;;;3.07;;
11691;SDS011;33659;42.672;23.354;2023-05-10T03:10:12;3.40;;;3.10;;
11691;SDS011;33659;42.672;23.354;2023-05-10T03:12:42;3.90;;;2.90;;
11691;SDS011;33659;42.672;23.354;2023-05-10T03:15:19;3.80;;;3.30;;
11691;SDS011;33659;42.672;23.354;2023-05-10T03:17:51;4.03;;;3.10;;
11691;SDS011;33659;42.672;23.354;2023-05-10T03:20:22;4.83;;;3.40;;
11691;SDS011;33659;42.672;23.354;2023-05-10T03:22:53;4.10;;;3.67;;
11691;SDS011;33659;42.672;23.354;2023-05-10T03:25:26;3.87;;;3.53;;
11691;SDS011;33659;42.672;23.354;2023-05-10T03:27:53;5.40;;;4.73;;
11691;SDS011;33659;42.672;23.354;2023-05-10T03:30:24;6.80;;;3.53;;
11691;SDS011;33659;42.672;23.354;2023-05-10T03:32:51;4.03;;;3.63;;
11691;SDS011;33659;42.672;23.354;2023-05-10T03:35:18;3.87;;;3.47;;
11691;SDS011;33659;42.672;23.354;2023-05-10T03:37:45;4.33;;;3.73;;
11691;SDS011;33659;42.672;23.354;2023-05-10T03:40:12;4.87;;;4.00;;
11691;SDS011;33659;42.672;23.354;2023-05-10T03:42:38;4.47;;;3.77;;
11691;SDS011;33659;42.672;23.354;2023-05-10T03:45:05;3.90;;;3.40;;
11691;SDS011;33659;42.672;23.354;2023-05-10T03:47:34;5.93;;;3.67;;
11691;SDS011;33659;42.672;23.354;2023-05-10T03:50:01;3.80;;;3.33;;
11691;SDS011;33659;42.672;23.354;2023-05-10T03:52:28;6.10;;;3.53;;
11691;SDS011;33659;42.672;23.354;2023-05-10T03:54:54;5.53;;;4.07;;
11691;SDS011;33659;42.672;23.354;2023-05-10T03:57:21;4.70;;;3.17;;
11691;SDS011;33659;42.672;23.354;2023-05-10T03:59:48;5.03;;;3.33;;
11691;SDS011;33659;42.672;23.354;2023-05-10T04:02:15;3.77;;;3.47;;
11691;SDS011;33659;42.672;23.354;2023-05-10T04:04:43;3.80;;;3.40;;
11691;SDS011;33659;42.672;23.354;2023-05-10T04:07:09;5.83;;;3.70;;
11691;SDS011;33659;42.672;23.354;2023-05-10T04:09:36;5.40;;;3.33;;
11691;SDS011;33659;42.672;23.354;2023-05-10T04:12:03;4.47;;;3.60;;
11691;SDS011;33659;42.672;23.354;2023-05-10T04:14:30;4.30;;;3.90;;
11691;SDS011;33659;42.672;23.354;2023-05-10T04:16:57;4.00;;;3.60;;
11691;SDS011;33659;42.672;23.354;2023-05-10T04:19:23;8.50;;;4.00;;
11691;SDS011;33659;42.672;23.354;2023-05-10T04:21:52;6.43;;;3.80;;
11691;SDS011;33659;42.672;23.354;2023-05-10T04:24:18;4.97;;;3.87;;
11691;SDS011;33659;42.672;23.354;2023-05-10T04:26:45;6.37;;;3.97;;
11691;SDS011;33659;42.672;23.354;2023-05-10T04:29:12;4.27;;;3.70;;
11691;SDS011;33659;42.672;23.354;2023-05-10T04:31:38;5.97;;;3.90;;
11691;SDS011;33659;42.672;23.354;2023-05-10T04:34:05;5.00;;;3.90;;
11691;SDS011;33659;42.672;23.354;2023-05-10T04:36:31;5.93;;;3.63;;
11691;SDS011;33659;42.672;23.354;2023-05-10T04:39:01;4.50;;;4.10;;
11691;SDS011;33659;42.672;23.354;2023-05-10T04:41:28;5.17;;;3.83;;
11691;SDS011;33659;42.672;23.354;2023-05-10T04:43:55;3.97;;;3.57;;
11691;SDS011;33659;42.672;23.354;2023-05-10T04:46:22;4.10;;;3.63;;
11691;SDS011;33659;42.672;23.354;2023-05-10T04:48:49;4.77;;;3.97;;
11691;SDS011;33659;42.672;23.354;2023-05-10T04:51:15;4.43;;;4.00;;
11691;SDS011;33659;42.672;23.354;2023-05-10T04:53:42;8.10;;;4.13;;
11691;SDS011;33659;42.672;23.354;2023-05-10T04:56:10;6.43;;;3.77;;
11691;SDS011;33659;42.672;23.354;2023-05-10T04:58:37;7.60;;;3.90;;
11691;SDS011;33659;42.672;23.354;2023-05-10T05:01:06;4.57;;;3.80;;
11691;SDS011;33659;42.672;23.354;2023-05-10T05:03:34;5.67;;;4.30;;
11691;SDS011;33659;42.672;23.354;2023-05-10T05:06:01;6.13;;;4.37;;
11691;SDS011;33659;42.672;23.354;2023-05-10T05:08:28;4.67;;;4.27;;
11691;SDS011;33659;42.672;23.354;2023-05-10T05:10:54;4.33;;;3.93;;
11691;SDS011;33659;42.672;23.354;2023-05-10T05:13:23;5.63;;;4.20;;
11691;SDS011;33659;42.672;23.354;2023-05-10T05:15:49;4.27;;;3.63;;
11691;SDS011;33659;42.672;23.354;2023-05-10T05:18:16;5.67;;;5.10;;
11691;SDS011;33659;42.672;23.354;2023-05-10T05:20:43;8.27;;;4.40;;
11691;SDS011;33659;42.672;23.354;2023-05-10T05:23:09;6.50;;;5.33;;
11691;SDS011;33659;42.672;23.354;2023-05-10T05:25:36;6.43;;;4.33;;
11691;SDS011;33659;42.672;23.354;2023-05-10T05:28:03;6.53;;;4.47;;
11691;SDS011;33659;42.672;23.354;2023-05-10T05:30:31;6.23;;;4.70;;
11691;SDS011;33659;42.672;23.354;2023-05-10T05:32:58;6.10;;;4.33;;
11691;SDS011;33659;42.672;23.354;2023-05-10T05:35:24;6.93;;;4.97;;
11691;SDS011;33659;42.672;23.354;2023-05-10T05:37:51;5.23;;;4.63;;
11691;SDS011;33659;42.672;23.354;2023-05-10T05:40:18;6.70;;;4.87;;
11691;SDS011;33659;42.672;23.354;2023-05-10T05:42:45;5.73;;;4.60;;
11691;SDS011;33659;42.672;23.354;2023-05-10T05:45:12;6.53;;;4.63;;
11691;SDS011;33659;42.672;23.354;2023-05-10T05:47:40;7.47;;;4.67;;
11691;SDS011;33659;42.672;23.354;2023-05-10T05:50:07;5.07;;;4.57;;
11691;SDS011;33659;42.672;23.354;2023-05-10T05:52:35;5.20;;;4.70;;
11691;SDS011;33659;42.672;23.354;2023-05-10T05:55:01;5.47;;;4.43;;
11691;SDS011;33659;42.672;23.354;2023-05-10T05:57:28;8.63;;;4.93;;
11691;SDS011;33659;42.672;23.354;2023-05-10T05:59:55;6.10;;;4.97;;
11691;SDS011;33659;42.672;23.354;2023-05-10T06:02:22;7.33;;;5.00;;
11691;SDS011;33659;42.672;23.354;2023-05-10T06:04:50;7.13;;;4.07;;
11691;SDS011;33659;42.672;23.354;2023-05-10T06:07:16;9.17;;;4.73;;
11691;SDS011;33659;42.672;23.354;2023-05-10T06:09:43;8.33;;;4.83;;
11691;SDS011;33659;42.672;23.354;2023-05-10T06:12:09;6.13;;;4.80;;
11691;SDS011;33659;42.672;23.354;2023-05-10T06:14:37;5.63;;;5.00;;
11691;SDS011;33659;42.672;23.354;2023-05-10T06:17:03;8.67;;;5.03;;
11691;SDS011;33659;42.672;23.354;2023-05-10T06:19:31;9.17;;;5.03;;
11691;SDS011;33659;42.672;23.354;2023-05-10T06:21:59;5.73;;;4.83;;
11691;SDS011;33659;42.672;23.354;2023-05-10T06:24:26;6.93;;;4.87;;
11691;SDS011;33659;42.672;23.354;2023-05-10T06:26:53;6.20;;;5.10;;
11691;SDS011;33659;42.672;23.354;2023-05-10T06:29:20;6.60;;;4.50;;
11691;SDS011;33659;42.672;23.354;2023-05-10T06:31:46;4.90;;;4.40;;
11691;SDS011;33659;42.672;23.354;2023-05-10T06:34:13;6.33;;;4.57;;
11691;SDS011;33659;42.672;23.354;2023-05-10T06:36:40;7.03;;;5.30;;
11691;SDS011;33659;42.672;23.354;2023-05-10T06:39:08;5.70;;;5.00;;
11691;SDS011;33659;42.672;23.354;2023-05-10T06:41:36;10.77;;;4.80;;
11691;SDS011;33659;42.672;23.354;2023-05-10T06:44:03;6.47;;;4.73;;
11691;SDS011;33659;42.672;23.354;2023-05-10T06:46:30;6.93;;;4.57;;
11691;SDS011;33659;42.672;23.354;2023-05-10T06:48:57;7.63;;;4.70;;
11691;SDS011;33659;42.672;23.354;2023-05-10T06:51:23;8.17;;;4.87;;
11691;SDS011;33659;42.672;23.354;2023-05-10T06:53:50;5.40;;;4.70;;
11691;SDS011;33659;42.672;23.354;2023-05-10T06:56:18;9.27;;;4.47;;
11691;SDS011;33659;42.672;23.354;2023-05-10T06:58:46;6.13;;;4.27;;
11691;SDS011;33659;42.672;23.354;2023-05-10T07:01:13;6.70;;;4.67;;
11691;SDS011;33659;42.672;23.354;2023-05-10T07:03:39;6.03;;;4.90;;
11691;SDS011;33659;42.672;23.354;2023-05-10T07:06:06;7.03;;;4.83;;
11691;SDS011;33659;42.672;23.354;2023-05-10T07:08:33;8.57;;;4.40;;
11691;SDS011;33659;42.672;23.354;2023-05-10T07:11:00;5.03;;;4.47;;
11691;SDS011;33659;42.672;23.354;2023-05-10T07:13:29;5.60;;;4.43;;
11691;SDS011;33659;42.672;23.354;2023-05-10T07:15:57;8.50;;;4.97;;
11691;SDS011;33659;42.672;23.354;2023-05-10T07:18:24;6.60;;;4.23;;
11691;SDS011;33659;42.672;23.354;2023-05-10T07:20:51;4.97;;;4.20;;
11691;SDS011;33659;42.672;23.354;2023-05-10T07:23:18;3.80;;;3.50;;
11691;SDS011;33659;42.672;23.354;2023-05-10T07:25:45;6.80;;;4.20;;
11691;SDS011;33659;42.672;23.354;2023-05-10T07:28:12;6.83;;;5.00;;
11691;SDS011;33659;42.672;23.354;2023-05-10T07:30:40;8.33;;;5.00;;
11691;SDS011;33659;42.672;23.354;2023-05-10T07:33:08;6.47;;;5.10;;
11691;SDS011;33659;42.672;23.354;2023-05-10T07:35:35;5.90;;;5.03;;
11691;SDS011;33659;42.672;23.354;2023-05-10T07:38:02;6.67;;;5.43;;
11691;SDS011;33659;42.672;23.354;2023-05-10T07:40:29;6.33;;;5.67;;
11691;SDS011;33659;42.672;23.354;2023-05-10T07:42:56;8.53;;;6.17;;
11691;SDS011;33659;42.672;23.354;2023-05-10T07:45:22;7.50;;;4.97;;
11691;SDS011;33659;42.672;23.354;2023-05-10T07:47:51;6.50;;;5.90;;
11691;SDS011;33659;42.672;23.354;2023-05-10T07:50:17;5.23;;;4.73;;
11691;SDS011;33659;42.672;23.354;2023-05-10T07:52:44;7.47;;;5.50;;
11691;SDS011;33659;42.672;23.354;2023-05-10T07:55:11;7.77;;;6.33;;
11691;SDS011;33659;42.672;23.354;2023-05-10T07:57:38;10.00;;;5.87;;
11691;SDS011;33659;42.672;23.354;2023-05-10T08:00:05;8.07;;;5.63;;
11691;SDS011;33659;42.672;23.354;2023-05-10T08:02:34;6.03;;;5.43;;
11691;SDS011;33659;42.672;23.354;2023-05-10T08:05:03;7.67;;;5.20;;
11691;SDS011;33659;42.672;23.354;2023-05-10T08:07:30;9.07;;;6.00;;
11691;SDS011;33659;42.672;23.354;2023-05-10T08:09:57;8.43;;;5.77;;
11691;SDS011;33659;42.672;23.354;2023-05-10T08:12:24;8.23;;;5.67;;
11691;SDS011;33659;42.672;23.354;2023-05-10T08:14:50;7.73;;;5.83;;
11691;SDS011;33659;42.672;23.354;2023-05-10T08:17:17;5.73;;;4.93;;
11691;SDS011;33659;42.672;23.354;2023-05-10T08:19:43;5.30;;;4.20;;
11691;SDS011;33659;42.672;23.354;2023-05-10T08:22:11;6.63;;;5.63;;
11691;SDS011;33659;42.672;23.354;2023-05-10T08:24:38;6.70;;;4.83;;
11691;SDS011;33659;42.672;23.354;2023-05-10T08:27:07;6.03;;;5.07;;
11691;SDS011;33659;42.672;23.354;2023-05-10T08:29:34;10.10;;;5.83;;
11691;SDS011;33659;42.672;23.354;2023-05-10T08:32:01;6.13;;;5.53;;
11691;SDS011;33659;42.672;23.354;2023-05-10T08:34:27;6.03;;;5.17;;
11691;SDS011;33659;42.672;23.354;2023-05-10T08:36:56;10.97;;;4.70;;
11691;SDS011;33659;42.672;23.354;2023-05-10T08:39:24;6.83;;;5.07;;
11691;SDS011;33659;42.672;23.354;2023-05-10T08:41:51;5.73;;;5.23;;
11691;SDS011;33659;42.672;23.354;2023-05-10T08:44:23;7.60;;;5.00;;
11691;SDS011;33659;42.672;23.354;2023-05-10T08:46:51;6.80;;;5.57;;
11691;SDS011;33659;42.672;23.354;2023-05-10T08:49:20;8.30;;;5.30;;
11691;SDS011;33659;42.672;23.354;2023-05-10T08:51:49;8.77;;;5.90;;
11691;SDS011;33659;42.672;23.354;2023-05-10T08:54:18;7.77;;;5.73;;
11691;SDS011;33659;42.672;23.354;2023-05-10T08:56:46;6.63;;;5.43;;
11691;SDS011;33659;42.672;23.354;2023-05-10T08:59:13;6.53;;;5.80;;
11691;SDS011;33659;42.672;23.354;2023-05-10T09:01:41;7.67;;;6.03;;
11691;SDS011;33659;42.672;23.354;2023-05-10T09:04:10;6.50;;;5.13;;
11691;SDS011;33659;42.672;23.354;2023-05-10T09:06:38;6.97;;;5.70;;
11691;SDS011;33659;42.672;23.354;2023-05-10T09:09:04;6.63;;;5.87;;
11691;SDS011;33659;42.672;23.354;2023-05-10T09:11:31;5.97;;;5.33;;
11691;SDS011;33659;42.672;23.354;2023-05-10T09:14:00;6.57;;;5.90;;
11691;SDS011;33659;42.672;23.354;2023-05-10T09:16:27;6.77;;;6.07;;
11691;SDS011;33659;42.672;23.354;2023-05-10T09:18:54;6.83;;;5.60;;
11691;SDS011;33659;42.672;23.354;2023-05-10T09:21:20;7.47;;;4.73;;
11691;SDS011;33659;42.672;23.354;2023-05-10T09:23:47;7.20;;;6.20;;
11691;SDS011;33659;42.672;23.354;2023-05-10T09:26:15;8.20;;;6.60;;
11691;SDS011;33659;42.672;23.354;2023-05-10T09:28:51;7.50;;;5.43;;
11691;SDS011;33659;42.672;23.354;2023-05-10T09:31:20;8.10;;;5.33;;
11691;SDS011;33659;42.672;23.354;2023-05-10T09:33:48;7.87;;;6.30;;
11691;SDS011;33659;42.672;23.354;2023-05-10T09:36:16;7.50;;;6.40;;
11691;SDS011;33659;42.672;23.354;2023-05-10T09:38:46;7.43;;;5.93;;
11691;SDS011;33659;42.672;23.354;2023-05-10T09:41:17;8.03;;;6.03;;
11691;SDS011;33659;42.672;23.354;2023-05-10T09:43:45;7.30;;;5.97;;
11691;SDS011;33659;42.672;23.354;2023-05-10T09:46:12;7.03;;;5.50;;
11691;SDS011;33659;42.672;23.354;2023-05-10T09:48:48;8.80;;;6.30;;
11691;SDS011;33659;42.672;23.354;2023-05-10T09:51:18;5.00;;;4.40;;
11691;SDS011;33659;42.672;23.354;2023-05-10T09:53:46;6.07;;;5.50;;
11691;SDS011;33659;42.672;23.354;2023-05-10T09:56:18;6.57;;;5.17;;
11691;SDS011;33659;42.672;23.354;2023-05-10T09:59:03;7.00;;;6.30;;
11691;SDS011;33659;42.672;23.354;2023-05-10T10:01:29;6.17;;;5.60;;
11691;SDS011;33659;42.672;23.354;2023-05-10T10:03:58;7.53;;;4.77;;
11691;SDS011;33659;42.672;23.354;2023-05-10T10:06:24;6.93;;;5.67;;
11691;SDS011;33659;42.672;23.354;2023-05-10T10:08:51;5.13;;;4.57;;
11691;SDS011;33659;42.672;23.354;2023-05-10T10:11:20;9.77;;;6.57;;
11691;SDS011;33659;42.672;23.354;2023-05-10T10:13:46;7.83;;;6.57;;
11691;SDS011;33659;42.672;23.354;2023-05-10T10:16:13;7.03;;;6.10;;
11691;SDS011;33659;42.672;23.354;2023-05-10T10:18:40;6.53;;;5.27;;
11691;SDS011;33659;42.672;23.354;2023-05-10T10:21:09;5.87;;;5.17;;
11691;SDS011;33659;42.672;23.354;2023-05-10T10:23:36;5.77;;;5.17;;
11691;SDS011;33659;42.672;23.354;2023-05-10T10:26:03;7.37;;;5.97;;
11691;SDS011;33659;42.672;23.354;2023-05-10T10:28:33;6.33;;;5.73;;
11691;SDS011;33659;42.672;23.354;2023-05-10T10:31:13;5.90;;;5.30;;
11691;SDS011;33659;42.672;23.354;2023-05-10T10:33:57;5.63;;;5.03;;
11691;SDS011;33659;42.672;23.354;2023-05-10T10:36:28;6.60;;;5.07;;
11691;SDS011;33659;42.672;23.354;2023-05-10T10:38:58;6.67;;;5.23;;
11691;SDS011;33659;42.672;23.354;2023-05-10T10:41:27;6.37;;;4.93;;
11691;SDS011;33659;42.672;23.354;2023-05-10T10:46:59;5.53;;;4.87;;
11691;SDS011;33659;42.672;23.354;2023-05-10T10:49:31;6.47;;;5.13;;
11691;SDS011;33659;42.672;23.354;2023-05-10T10:52:15;4.83;;;4.27;;
11691;SDS011;33659;42.672;23.354;2023-05-10T10:54:51;10.10;;;4.83;;
11691;SDS011;33659;42.672;23.354;2023-05-10T10:57:18;4.77;;;4.27;;
11691;SDS011;33659;42.672;23.354;2023-05-10T10:59:47;6.20;;;4.10;;
11691;SDS011;33659;42.672;23.354;2023-05-10T11:08:13;6.30;;;4.40;;
11691;SDS011;33659;42.672;23.354;2023-05-10T11:10:49;6.57;;;4.93;;
11691;SDS011;33659;42.672;23.354;2023-05-10T11:13:26;6.83;;;4.30;;
11691;SDS011;33659;42.672;23.354;2023-05-10T11:15:54;6.20;;;4.60;;
11691;SDS011;33659;42.672;23.354;2023-05-10T11:18:23;9.47;;;4.80;;
11691;SDS011;33659;42.672;23.354;2023-05-10T11:20:51;8.70;;;5.10;;
11691;SDS011;33659;42.672;23.354;2023-05-10T11:23:24;5.40;;;3.83;;
11691;SDS011;33659;42.672;23.354;2023-05-10T11:25:56;4.20;;;3.80;;
11691;SDS011;33659;42.672;23.354;2023-05-10T11:28:22;5.37;;;4.50;;
11691;SDS011;33659;42.672;23.354;2023-05-10T11:30:50;5.20;;;4.47;;
11691;SDS011;33659;42.672;23.354;2023-05-10T11:33:17;6.30;;;5.30;;
11691;SDS011;33659;42.672;23.354;2023-05-10T11:35:45;4.50;;;4.10;;
11691;SDS011;33659;42.672;23.354;2023-05-10T11:38:13;6.67;;;4.07;;
11691;SDS011;33659;42.672;23.354;2023-05-10T11:40:42;4.80;;;4.30;;
11691;SDS011;33659;42.672;23.354;2023-05-10T11:43:09;7.07;;;5.20;;
11691;SDS011;33659;42.672;23.354;2023-05-10T11:45:40;6.43;;;4.97;;
11691;SDS011;33659;42.672;23.354;2023-05-10T11:48:07;5.03;;;4.53;;
11691;SDS011;33659;42.672;23.354;2023-05-10T11:50:34;5.03;;;4.53;;
11691;SDS011;33659;42.672;23.354;2023-05-10T11:53:01;3.93;;;3.53;;
11691;SDS011;33659;42.672;23.354;2023-05-10T11:55:27;5.40;;;4.13;;
11691;SDS011;33659;42.672;23.354;2023-05-10T11:58:00;4.13;;;3.80;;
11691;SDS011;33659;42.672;23.354;2023-05-10T12:00:27;7.47;;;4.40;;
11691;SDS011;33659;42.672;23.354;2023-05-10T12:02:55;5.27;;;4.73;;
11691;SDS011;33659;42.672;23.354;2023-05-10T12:05:21;6.13;;;4.00;;
11691;SDS011;33659;42.672;23.354;2023-05-10T12:07:48;5.70;;;4.90;;
11691;SDS011;33659;42.672;23.354;2023-05-10T12:10:15;4.33;;;3.93;;
11691;SDS011;33659;42.672;23.354;2023-05-10T12:12:43;5.93;;;4.47;;
11691;SDS011;33659;42.672;23.354;2023-05-10T12:15:12;6.00;;;4.80;;
11691;SDS011;33659;42.672;23.354;2023-05-10T12:17:44;5.93;;;5.30;;
11691;SDS011;33659;42.672;23.354;2023-05-10T12:20:15;5.73;;;5.00;;
11691;SDS011;33659;42.672;23.354;2023-05-10T12:22:47;7.67;;;5.27;;
11691;SDS011;33659;42.672;23.354;2023-05-10T12:25:16;8.93;;;6.27;;
11691;SDS011;33659;42.672;23.354;2023-05-10T12:27:47;7.63;;;4.93;;
11691;SDS011;33659;42.672;23.354;2023-05-10T12:30:20;8.77;;;5.23;;
11691;SDS011;33659;42.672;23.354;2023-05-10T12:32:47;6.77;;;5.50;;
11691;SDS011;33659;42.672;23.354;2023-05-10T12:35:15;5.13;;;4.20;;
11691;SDS011;33659;42.672;23.354;2023-05-10T12:37:42;5.60;;;5.10;;
11691;SDS011;33659;42.672;23.354;2023-05-10T12:40:09;5.10;;;4.57;;
11691;SDS011;33659;42.672;23.354;2023-05-10T12:42:37;7.77;;;4.93;;
11691;SDS011;33659;42.672;23.354;2023-05-10T12:45:05;6.60;;;3.80;;
11691;SDS011;33659;42.672;23.354;2023-05-10T12:47:35;5.47;;;4.97;;
11691;SDS011;33659;42.672;23.354;2023-05-10T12:50:02;6.33;;;5.43;;
11691;SDS011;33659;42.672;23.354;2023-05-10T12:52:29;6.30;;;5.23;;
11691;SDS011;33659;42.672;23.354;2023-05-10T12:54:57;9.67;;;5.07;;
11691;SDS011;33659;42.672;23.354;2023-05-10T12:57:25;7.30;;;5.07;;
11691;SDS011;33659;42.672;23.354;2023-05-10T12:59:51;8.37;;;5.20;;
11691;SDS011;33659;42.672;23.354;2023-05-10T13:02:18;6.83;;;4.93;;
11691;SDS011;33659;42.672;23.354;2023-05-10T13:04:47;6.70;;;4.70;;
11691;SDS011;33659;42.672;23.354;2023-05-10T13:07:14;7.10;;;5.17;;
11691;SDS011;33659;42.672;23.354;2023-05-10T13:09:40;5.90;;;5.27;;
11691;SDS011;33659;42.672;23.354;2023-05-10T13:12:07;4.40;;;4.00;;
11691;SDS011;33659;42.672;23.354;2023-05-10T13:14:34;5.70;;;5.10;;
11691;SDS011;33659;42.672;23.354;2023-05-10T13:17:00;4.53;;;4.13;;
11691;SDS011;33659;42.672;23.354;2023-05-10T13:19:27;5.40;;;4.50;;
11691;SDS011;33659;42.672;23.354;2023-05-10T13:21:55;5.07;;;4.33;;
11691;SDS011;33659;42.672;23.354;2023-05-10T13:24:22;6.03;;;5.00;;
11691;SDS011;33659;42.672;23.354;2023-05-10T13:26:48;6.97;;;4.80;;
11691;SDS011;33659;42.672;23.354;2023-05-10T13:29:15;7.20;;;4.87;;
11691;SDS011;33659;42.672;23.354;2023-05-10T13:31:43;5.30;;;4.80;;
11691;SDS011;33659;42.672;23.354;2023-05-10T13:34:10;5.40;;;4.67;;
11691;SDS011;33659;42.672;23.354;2023-05-10T13:36:36;5.20;;;4.10;;
11691;SDS011;33659;42.672;23.354;2023-05-10T13:39:04;9.37;;;4.57;;
11691;SDS011;33659;42.672;23.354;2023-05-10T13:41:31;4.97;;;4.47;;
11691;SDS011;33659;42.672;23.354;2023-05-10T13:43:58;5.10;;;4.57;;
11691;SDS011;33659;42.672;23.354;2023-05-10T13:46:24;7.83;;;4.10;;
11691;SDS011;33659;42.672;23.354;2023-05-10T13:48:51;6.53;;;4.50;;
11691;SDS011;33659;42.672;23.354;2023-05-10T13:51:18;5.90;;;4.73;;
11691;SDS011;33659;42.672;23.354;2023-05-10T13:53:45;5.57;;;5.07;;
11691;SDS011;33659;42.672;23.354;2023-05-10T13:59:08;6.17;;;4.13;;
11691;SDS011;33659;42.672;23.354;2023-05-10T14:01:35;7.23;;;4.27;;
11691;SDS011;33659;42.672;23.354;2023-05-10T14:04:02;6.23;;;5.27;;
11691;SDS011;33659;42.672;23.354;2023-05-10T14:06:29;7.10;;;4.97;;
11691;SDS011;33659;42.672;23.354;2023-05-10T14:08:56;5.33;;;4.10;;
11691;SDS011;33659;42.672;23.354;2023-05-10T14:11:22;5.77;;;4.47;;
11691;SDS011;33659;42.672;23.354;2023-05-10T14:13:51;5.40;;;4.10;;
11691;SDS011;33659;42.672;23.354;2023-05-10T14:16:17;5.50;;;4.87;;
11691;SDS011;33659;42.672;23.354;2023-05-10T14:18:45;6.07;;;4.30;;
11691;SDS011;33659;42.672;23.354;2023-05-10T14:21:11;5.97;;;4.60;;
11691;SDS011;33659;42.672;23.354;2023-05-10T14:23:38;6.37;;;4.33;;
11691;SDS011;33659;42.672;23.354;2023-05-10T14:26:05;5.57;;;5.00;;
11691;SDS011;33659;42.672;23.354;2023-05-10T14:28:32;5.67;;;4.40;;
11691;SDS011;33659;42.672;23.354;2023-05-10T14:31:01;4.97;;;4.10;;
11691;SDS011;33659;42.672;23.354;2023-05-10T14:33:27;6.67;;;4.93;;
11691;SDS011;33659;42.672;23.354;2023-05-10T14:35:54;8.10;;;4.90;;
11691;SDS011;33659;42.672;23.354;2023-05-10T14:38:21;5.00;;;4.37;;
11691;SDS011;33659;42.672;23.354;2023-05-10T14:40:48;5.97;;;4.90;;
11691;SDS011;33659;42.672;23.354;2023-05-10T14:43:15;9.03;;;5.40;;
11691;SDS011;33659;42.672;23.354;2023-05-10T14:45:42;6.07;;;5.03;;
11691;SDS011;33659;42.672;23.354;2023-05-10T14:48:11;6.43;;;5.13;;
11691;SDS011;33659;42.672;23.354;2023-05-10T14:50:40;6.43;;;4.47;;
11691;SDS011;33659;42.672;23.354;2023-05-10T14:56:01;5.23;;;4.70;;